Time;durP1;ratioP1;P1;durP2;ratioP2;P2;SDS_P1;SDS_P2;PMS_P1;PMS_P2;Temp;Humidity;BMP_temperature;BMP_pressure;BME280_temperature;BME280_humidity;BME280_pressure;Samples;Min_cycle;Max_cycle;Signal;HPM_P1;HPM_P2
2021/10/29 00:00:35;;;;;;;;;21.50;17.50;;;;;;;;4941033;28;113774;-73
2021/10/29 00:03:04;;;;;;;;;21.75;17.00;;;;;;;;4942274;28;111990;-73
2021/10/29 00:05:29;;;;;;;;;22.00;18.50;;;;;;;;4942765;28;112355;-73
2021/10/29 00:07:55;;;;;;;;;12.50;12.00;;;;;;;;4945255;28;112979;-72
2021/10/29 00:10:20;;;;;;;;;17.25;14.50;;;;;;;;4942405;28;112127;-73
2021/10/29 00:12:46;;;;;;;;;18.75;17.25;;;;;;;;4941374;28;112814;-72
2021/10/29 00:15:11;;;;;;;;;18.25;18.25;;;;;;;;4942563;28;112460;-73
2021/10/29 00:17:37;;;;;;;;;17.25;14.75;;;;;;;;4943025;28;112118;-73
2021/10/29 00:20:03;;;;;;;;;21.25;16.50;;;;;;;;4941865;28;112221;-73
2021/10/29 00:22:28;;;;;;;;;21.50;17.00;;;;;;;;4942731;28;112124;-73
2021/10/29 00:24:54;;;;;;;;;16.00;15.00;;;;;;;;4942639;28;111851;-73
2021/10/29 00:27:19;;;;;;;;;23.00;16.75;;;;;;;;4944785;28;113957;-73
2021/10/29 00:29:47;;;;;;;;;13.50;13.50;;;;;;;;4942294;28;111944;-73
2021/10/29 00:32:13;;;;;;;;;17.50;15.75;;;;;;;;4941693;28;112719;-73
2021/10/29 00:34:38;;;;;;;;;21.25;14.50;;;;;;;;4942420;28;113166;-73
2021/10/29 00:37:03;;;;;;;;;14.75;14.00;;;;;;;;4942286;28;111847;-73
2021/10/29 00:39:29;;;;;;;;;16.25;14.75;;;;;;;;4941062;28;113607;-73
2021/10/29 00:41:54;;;;;;;;;15.25;12.50;;;;;;;;4941863;28;111994;-73
2021/10/29 00:44:26;;;;;;;;;23.00;16.50;;;;;;;;4942099;28;112368;-73
2021/10/29 00:46:52;;;;;;;;;24.75;17.50;;;;;;;;4940666;28;113652;-73
2021/10/29 00:49:17;;;;;;;;;16.00;14.50;;;;;;;;4940580;28;112255;-73
2021/10/29 00:51:43;;;;;;;;;17.75;15.00;;;;;;;;4941140;28;113122;-73
2021/10/29 00:54:09;;;;;;;;;20.00;15.00;;;;;;;;4941385;28;112003;-73
2021/10/29 00:56:35;;;;;;;;;17.67;15.00;;;;;;;;4941663;28;111791;-73
2021/10/29 00:59:00;;;;;;;;;17.50;14.00;;;;;;;;4940792;28;112311;-73
2021/10/29 01:01:25;;;;;;;;;16.25;16.25;;;;;;;;4941720;28;111924;-73
2021/10/29 01:03:51;;;;;;;;;12.50;11.25;;;;;;;;4940522;28;112371;-73
2021/10/29 01:06:16;;;;;;;;;17.00;14.75;;;;;;;;4940502;28;112559;-73
2021/10/29 01:08:42;;;;;;;;;18.67;17.67;;;;;;;;4941748;28;111883;-73
2021/10/29 01:11:11;;;;;;;;;20.00;15.00;;;;;;;;4939188;28;112180;-72
2021/10/29 01:13:36;;;;;;;;;15.00;14.25;;;;;;;;4942187;28;111908;-73
2021/10/29 01:16:01;;;;;;;;;18.00;15.25;;;;;;;;4941889;28;111982;-73
2021/10/29 01:18:27;;;;;;;;;19.75;16.50;;;;;;;;4940531;28;112574;-74
2021/10/29 01:20:52;;;;;;;;;19.00;16.50;;;;;;;;4942233;28;111656;-74
2021/10/29 01:23:17;;;;;;;;;18.50;18.00;;;;;;;;4941476;28;112007;-73
2021/10/29 01:25:42;;;;;;;;;16.25;15.00;;;;;;;;4940914;28;113015;-73
2021/10/29 01:28:11;;;;;;;;;17.00;15.00;;;;;;;;4941694;28;111914;-74
2021/10/29 01:30:37;;;;;;;;;22.75;15.00;;;;;;;;4941701;28;112221;-72
2021/10/29 01:33:02;;;;;;;;;16.50;13.00;;;;;;;;4943898;28;113193;-72
2021/10/29 01:35:28;;;;;;;;;15.00;14.50;;;;;;;;4941484;28;112003;-73
2021/10/29 01:37:54;;;;;;;;;10.00;8.00;;;;;;;;4939890;28;113923;-73
2021/10/29 01:40:19;;;;;;;;;18.75;13.50;;;;;;;;4941059;28;112511;-73
2021/10/29 01:42:46;;;;;;;;;15.25;15.00;;;;;;;;4941124;28;111920;-73
2021/10/29 01:45:12;;;;;;;;;16.50;15.25;;;;;;;;4940566;28;112490;-73
2021/10/29 01:47:37;;;;;;;;;14.00;14.00;;;;;;;;4923514;28;111924;-73
2021/10/29 01:50:03;;;;;;;;;15.50;14.50;;;;;;;;4941401;28;112267;-73
2021/10/29 01:52:28;;;;;;;;;14.75;12.50;;;;;;;;4940043;28;112344;-73
2021/10/29 01:54:54;;;;;;;;;14.25;11.75;;;;;;;;4944109;28;111899;-73
2021/10/29 01:57:19;;;;;;;;;21.00;17.00;;;;;;;;4940015;28;112342;-73
2021/10/29 01:59:44;;;;;;;;;17.00;14.50;;;;;;;;4940637;28;111995;-73
2021/10/29 02:02:10;;;;;;;;;20.00;15.00;;;;;;;;4940931;28;111828;-73
2021/10/29 02:04:35;;;;;;;;;14.75;10.75;;;;;;;;4939906;28;113017;-74
2021/10/29 02:07:00;;;;;;;;;16.50;14.25;;;;;;;;4941213;28;112239;-73
2021/10/29 02:09:26;;;;;;;;;17.25;13.00;;;;;;;;4941400;28;112331;-74
2021/10/29 02:11:51;;;;;;;;;20.00;14.25;;;;;;;;4940114;28;112298;-73
2021/10/29 02:14:16;;;;;;;;;17.00;11.50;;;;;;;;4941555;28;111812;-74
2021/10/29 02:16:42;;;;;;;;;17.25;15.25;;;;;;;;4947327;28;112306;-73
2021/10/29 02:19:07;;;;;;;;;15.67;15.67;;;;;;;;4944577;28;111831;-73
2021/10/29 02:21:34;;;;;;;;;17.00;14.67;;;;;;;;4926509;28;113002;-72
2021/10/29 02:23:59;;;;;;;;;14.00;10.00;;;;;;;;4942825;28;112397;-73
2021/10/29 02:26:25;;;;;;;;;14.00;11.50;;;;;;;;4944252;28;112210;-72
2021/10/29 02:28:51;;;;;;;;;17.25;15.00;;;;;;;;4944334;28;112236;-71
2021/10/29 02:31:17;;;;;;;;;17.25;14.00;;;;;;;;4943498;28;112400;-71
2021/10/29 02:33:42;;;;;;;;;16.00;14.00;;;;;;;;4943920;28;111777;-72
2021/10/29 02:36:07;;;;;;;;;14.00;13.00;;;;;;;;4946920;28;112149;-74
2021/10/29 02:38:33;;;;;;;;;14.00;12.50;;;;;;;;4943737;28;112289;-73
2021/10/29 02:40:58;;;;;;;;;12.50;11.75;;;;;;;;4925767;28;114981;-71
2021/10/29 02:43:24;;;;;;;;;16.50;15.50;;;;;;;;4942408;28;113959;-73
2021/10/29 02:45:49;;;;;;;;;14.75;13.75;;;;;;;;4925801;28;111875;-72
2021/10/29 02:48:15;;;;;;;;;19.50;13.50;;;;;;;;4943813;28;112106;-73
2021/10/29 02:50:40;;;;;;;;;14.25;12.50;;;;;;;;4943214;28;112386;-73
2021/10/29 02:53:07;;;;;;;;;13.25;12.25;;;;;;;;4938381;28;111917;-73
2021/10/29 02:55:33;;;;;;;;;20.33;14.00;;;;;;;;4943215;28;113102;-73
2021/10/29 02:57:59;;;;;;;;;15.00;14.50;;;;;;;;4945713;28;113897;-73
2021/10/29 03:00:24;;;;;;;;;15.00;13.67;;;;;;;;4943998;28;113774;-73
2021/10/29 03:02:50;;;;;;;;;16.50;13.50;;;;;;;;4942817;28;112400;-72
2021/10/29 03:05:15;;;;;;;;;14.67;13.67;;;;;;;;4943813;28;111853;-72
2021/10/29 03:07:40;;;;;;;;;17.25;12.00;;;;;;;;4944128;28;112330;-73
2021/10/29 03:10:07;;;;;;;;;13.00;13.00;;;;;;;;4942814;28;112565;-73
2021/10/29 03:12:33;;;;;;;;;23.00;15.00;;;;;;;;4943104;28;112009;-72
2021/10/29 03:14:58;;;;;;;;;17.00;14.00;;;;;;;;4943010;28;113068;-72
2021/10/29 03:17:24;;;;;;;;;14.33;14.33;;;;;;;;4941942;28;113648;-73
2021/10/29 03:19:50;;;;;;;;;12.33;11.00;;;;;;;;4947842;28;111770;-73
2021/10/29 03:22:15;;;;;;;;;16.67;14.00;;;;;;;;4942275;28;113744;-72
2021/10/29 03:24:40;;;;;;;;;23.00;16.33;;;;;;;;4943253;28;112400;-72
2021/10/29 03:27:06;;;;;;;;;14.50;13.00;;;;;;;;4942911;28;111802;-73
2021/10/29 03:29:31;;;;;;;;;21.00;14.67;;;;;;;;4942326;28;112365;-72
2021/10/29 03:31:56;;;;;;;;;14.67;14.67;;;;;;;;4943160;28;111713;-73
2021/10/29 03:34:21;;;;;;;;;17.50;13.25;;;;;;;;4925149;28;114038;-73
2021/10/29 03:36:47;;;;;;;;;17.50;13.75;;;;;;;;4941910;28;112389;-73
2021/10/29 03:39:18;;;;;;;;;21.00;14.00;;;;;;;;4942424;28;112161;-73
2021/10/29 03:42:07;;;;;;;;;13.00;13.00;;;;;;;;4945726;28;112487;-73
2021/10/29 03:44:46;;;;;;;;;13.00;11.67;;;;;;;;4942323;28;111933;-73
2021/10/29 03:47:13;;;;;;;;;13.00;13.00;;;;;;;;4942517;28;113098;-73
2021/10/29 03:54:38;;;;;;;;;15.00;15.00;;;;;;;;4942099;28;112619;-73
2021/10/29 03:59:29;;;;;;;;;16.67;15.33;;;;;;;;4943247;28;111887;-73
2021/10/29 04:01:55;;;;;;;;;20.67;17.00;;;;;;;;4942842;28;113034;-74
2021/10/29 04:04:20;;;;;;;;;14.00;13.00;;;;;;;;4945163;28;113986;-74
2021/10/29 04:06:46;;;;;;;;;16.00;14.00;;;;;;;;4942791;28;112017;-73
2021/10/29 04:09:12;;;;;;;;;17.00;15.33;;;;;;;;4941500;28;112417;-74
2021/10/29 04:11:38;;;;;;;;;17.67;14.00;;;;;;;;4942162;28;112265;-74
2021/10/29 04:14:09;;;;;;;;;14.00;14.00;;;;;;;;4925300;28;113906;-74
2021/10/29 04:16:38;;;;;;;;;11.67;11.67;;;;;;;;4941634;28;113922;-74
2021/10/29 04:19:04;;;;;;;;;14.67;13.33;;;;;;;;4925883;28;112254;-74
2021/10/29 04:21:30;;;;;;;;;13.00;13.00;;;;;;;;4942254;28;112594;-74
2021/10/29 04:23:55;;;;;;;;;16.00;13.00;;;;;;;;4941222;28;112489;-74
2021/10/29 04:26:20;;;;;;;;;16.00;14.00;;;;;;;;4938325;28;111869;-74
2021/10/29 04:28:51;;;;;;;;;10.67;7.67;;;;;;;;4940934;28;112403;-73
2021/10/29 04:31:19;;;;;;;;;14.67;14.00;;;;;;;;4942561;28;111790;-73
2021/10/29 04:33:44;;;;;;;;;14.67;13.67;;;;;;;;4942193;28;111929;-73
2021/10/29 04:36:10;;;;;;;;;16.00;16.00;;;;;;;;4958083;28;112408;-70
2021/10/29 04:38:35;;;;;;;;;17.00;14.33;;;;;;;;4960503;28;111691;-71
2021/10/29 04:41:00;;;;;;;;;13.00;13.00;;;;;;;;4961295;28;113088;-70
2021/10/29 04:43:25;;;;;;;;;19.33;16.33;;;;;;;;4942517;28;114651;-70
2021/10/29 04:45:51;;;;;;;;;16.00;12.33;;;;;;;;4965235;28;111892;-71
2021/10/29 04:48:16;;;;;;;;;19.67;19.00;;;;;;;;4960231;28;112328;-70
2021/10/29 04:50:41;;;;;;;;;19.00;19.00;;;;;;;;4961045;28;112097;-68
2021/10/29 04:53:07;;;;;;;;;23.67;19.00;;;;;;;;4955526;28;112950;-70
2021/10/29 04:55:33;;;;;;;;;16.67;14.00;;;;;;;;4957118;28;112832;-69
2021/10/29 04:57:58;;;;;;;;;19.67;14.67;;;;;;;;4961837;28;112120;-70
2021/10/29 05:00:24;;;;;;;;;13.00;11.00;;;;;;;;4961430;28;111883;-70
2021/10/29 05:02:50;;;;;;;;;15.00;14.67;;;;;;;;4960367;28;112573;-71
2021/10/29 05:05:16;;;;;;;;;16.00;16.00;;;;;;;;4961208;28;112140;-71
2021/10/29 05:07:41;;;;;;;;;22.67;22.00;;;;;;;;4963598;28;112977;-71
2021/10/29 05:10:06;;;;;;;;;24.33;18.33;;;;;;;;4960923;28;112107;-70
2021/10/29 05:12:32;;;;;;;;;23.00;19.00;;;;;;;;4960891;28;112563;-69
2021/10/29 05:14:57;;;;;;;;;20.00;19.67;;;;;;;;4960440;28;112408;-71
2021/10/29 05:17:22;;;;;;;;;21.33;21.33;;;;;;;;4961110;28;112009;-71
2021/10/29 05:19:48;;;;;;;;;30.00;23.00;;;;;;;;4943776;28;112279;-75
2021/10/29 05:22:13;;;;;;;;;21.33;19.00;;;;;;;;4960103;28;112463;-74
2021/10/29 05:24:38;;;;;;;;;18.00;17.67;;;;;;;;4960686;28;111787;-75
2021/10/29 05:27:04;;;;;;;;;21.33;16.33;;;;;;;;4943030;28;114399;-71
2021/10/29 05:29:30;;;;;;;;;32.00;30.33;;;;;;;;4963406;28;112670;-72
2021/10/29 05:31:58;;;;;;;;;28.33;25.00;;;;;;;;4910886;28;112288;-70
2021/10/29 05:34:23;;;;;;;;;20.67;19.00;;;;;;;;4957973;28;113052;-74
2021/10/29 05:36:48;;;;;;;;;35.33;32.67;;;;;;;;4921144;28;112056;-75
2021/10/29 05:39:14;;;;;;;;;41.67;33.33;;;;;;;;4946153;28;112034;-74
2021/10/29 05:41:46;;;;;;;;;39.33;34.00;;;;;;;;4940293;28;112589;-75
2021/10/29 05:44:11;;;;;;;;;178.75;151.25;;;;;;;;4952485;28;111968;-75
2021/10/29 05:46:41;;;;;;;;;98.00;72.00;;;;;;;;4959956;28;112520;-74
2021/10/29 05:49:10;;;;;;;;;208.75;170.75;;;;;;;;4956325;28;113013;-72
2021/10/29 05:51:42;;;;;;;;;176.75;144.50;;;;;;;;4963207;28;112067;-72
2021/10/29 05:54:11;;;;;;;;;106.75;78.00;;;;;;;;4967979;28;112429;-72
2021/10/29 05:56:37;;;;;;;;;103.50;77.75;;;;;;;;4980611;28;111926;-74
2021/10/29 05:59:04;;;;;;;;;151.50;127.75;;;;;;;;4975105;28;112234;-77
2021/10/29 06:01:30;;;;;;;;;78.25;57.00;;;;;;;;4952342;28;113634;-77
2021/10/29 06:03:55;;;;;;;;;35.67;30.67;;;;;;;;4975073;28;119280;-76
2021/10/29 06:06:20;;;;;;;;;30.33;27.00;;;;;;;;4955262;28;112240;-78
2021/10/29 06:08:46;;;;;;;;;20.67;19.67;;;;;;;;4957351;28;113587;-78
2021/10/29 06:11:12;;;;;;;;;20.33;19.00;;;;;;;;4959795;28;112010;-76
2021/10/29 06:13:37;;;;;;;;;26.67;20.33;;;;;;;;4958239;28;112236;-76
2021/10/29 06:16:02;;;;;;;;;24.00;17.00;;;;;;;;4959588;28;111915;-77
2021/10/29 06:18:27;;;;;;;;;23.00;21.00;;;;;;;;4959535;28;113168;-78
2021/10/29 06:20:56;;;;;;;;;23.67;18.00;;;;;;;;4957681;28;115564;-78
2021/10/29 06:23:26;;;;;;;;;139.25;118.75;;;;;;;;4959320;28;112047;-78
2021/10/29 06:28:28;;;;;;;;;148.50;118.50;;;;;;;;4916915;28;113357;-75
2021/10/29 06:30:55;;;;;;;;;64.67;50.33;;;;;;;;4919766;28;112146;-76
2021/10/29 06:33:22;;;;;;;;;112.50;88.50;;;;;;;;4920364;28;112085;-75
2021/10/29 06:35:48;;;;;;;;;84.25;63.25;;;;;;;;4922154;28;113172;-75
2021/10/29 06:38:13;;;;;;;;;38.33;34.67;;;;;;;;4920767;28;112303;-74
2021/10/29 06:40:42;;;;;;;;;30.33;27.33;;;;;;;;4920142;28;112623;-85
2021/10/29 06:43:13;;;;;;;;;28.33;24.67;;;;;;;;4920035;28;112362;-79
2021/10/29 06:59:42;;;;;;;;;30.00;23.00;;;;;;;;4920372;28;113711;-70
2021/10/29 07:39:58;;;;;;;;;198.25;170.50;;;;;;;;4921519;28;112794;-76
2021/10/29 07:40:16;;;;;;;;;27.00;24.75;;;;;;;;4922111;28;112566;-72
2021/10/29 07:42:58;;;;;;;;;24.25;24.00;;;;;;;;4922670;28;112253;-71
2021/10/29 07:45:26;;;;;;;;;28.00;26.50;;;;;;;;4926456;28;112027;-71
2021/10/29 07:47:51;;;;;;;;;32.75;27.75;;;;;;;;4922897;28;112472;-72
2021/10/29 07:50:18;;;;;;;;;25.75;23.50;;;;;;;;4923744;28;112203;-74
2021/10/29 07:52:44;;;;;;;;;24.50;24.00;;;;;;;;4921964;28;112696;-74
2021/10/29 07:55:10;;;;;;;;;30.00;27.50;;;;;;;;4922482;28;111980;-73
2021/10/29 07:57:36;;;;;;;;;34.00;29.00;;;;;;;;4922626;28;112572;-75
2021/10/29 08:00:03;;;;;;;;;34.50;33.00;;;;;;;;4922301;28;113074;-74
2021/10/29 08:02:29;;;;;;;;;28.50;24.00;;;;;;;;4921866;28;112352;-75
2021/10/29 08:04:54;;;;;;;;;28.50;26.75;;;;;;;;4922198;28;113075;-75
2021/10/29 08:07:20;;;;;;;;;37.00;33.50;;;;;;;;4923603;28;115448;-74
2021/10/29 08:09:45;;;;;;;;;24.50;24.25;;;;;;;;4922879;28;112305;-72
2021/10/29 08:12:12;;;;;;;;;27.75;24.75;;;;;;;;4921507;28;113568;-74
2021/10/29 08:14:38;;;;;;;;;30.75;27.75;;;;;;;;4920997;28;112191;-74
2021/10/29 08:17:03;;;;;;;;;32.00;27.00;;;;;;;;4907268;28;113085;-76
2021/10/29 08:19:33;;;;;;;;;30.50;29.25;;;;;;;;4913416;28;112455;-75
2021/10/29 08:21:59;;;;;;;;;32.50;27.25;;;;;;;;4897295;28;112310;-76
2021/10/29 08:24:25;;;;;;;;;31.75;25.25;;;;;;;;4910946;28;113155;-76
2021/10/29 08:26:50;;;;;;;;;26.50;24.75;;;;;;;;4912331;28;113308;-75
2021/10/29 08:29:17;;;;;;;;;32.50;29.75;;;;;;;;4926054;28;111778;-77
2021/10/29 08:31:42;;;;;;;;;34.25;28.50;;;;;;;;4920860;28;112141;-77
2021/10/29 08:34:07;;;;;;;;;33.75;31.00;;;;;;;;4921869;28;111818;-73
2021/10/29 08:36:35;;;;;;;;;34.50;33.00;;;;;;;;4921662;28;112257;-74
2021/10/29 08:39:00;;;;;;;;;31.00;26.25;;;;;;;;4920936;28;113858;-74
2021/10/29 08:41:26;;;;;;;;;27.25;25.50;;;;;;;;4922049;28;112531;-73
2021/10/29 08:43:52;;;;;;;;;34.25;31.50;;;;;;;;4921359;28;112989;-73
2021/10/29 08:46:17;;;;;;;;;41.50;36.00;;;;;;;;4920851;28;112435;-73
2021/10/29 08:48:43;;;;;;;;;130.50;116.00;;;;;;;;4925675;28;111954;-73
2021/10/29 08:51:08;;;;;;;;;86.00;67.50;;;;;;;;4919943;28;113706;-73
2021/10/29 08:53:34;;;;;;;;;76.33;57.00;;;;;;;;4921508;28;112362;-73
2021/10/29 08:56:03;;;;;;;;;218.75;173.50;;;;;;;;4921498;28;112888;-73
2021/10/29 08:58:29;;;;;;;;;153.75;129.25;;;;;;;;4919075;28;112615;-73
2021/10/29 09:00:59;;;;;;;;;93.50;73.00;;;;;;;;4920240;28;112219;-74
2021/10/29 09:03:30;;;;;;;;;60.33;48.33;;;;;;;;4920723;28;112477;-73
2021/10/29 09:06:16;;;;;;;;;75.00;58.00;;;;;;;;4920815;28;113285;-74
2021/10/29 09:09:32;;;;;;;;;80.67;61.33;;;;;;;;4921439;28;112072;-74
2021/10/29 09:31:23;;;;;;;;;35.00;29.50;;;;;;;;4919731;28;111831;-72
2021/10/29 09:34:15;;;;;;;;;35.75;31.00;;;;;;;;4921321;28;112263;-75
2021/10/29 09:36:41;;;;;;;;;39.25;32.75;;;;;;;;4923554;28;114921;-75
2021/10/29 09:39:14;;;;;;;;;33.25;27.00;;;;;;;;4921356;28;112612;-75
2021/10/29 09:41:39;;;;;;;;;31.75;29.00;;;;;;;;4906212;28;114306;-75
2021/10/29 09:44:06;;;;;;;;;36.00;32.25;;;;;;;;4920567;28;112375;-73
2021/10/29 09:46:36;;;;;;;;;31.25;30.25;;;;;;;;4919555;28;113254;-73
2021/10/29 09:49:09;;;;;;;;;25.25;24.25;;;;;;;;4919723;28;113872;-74
2021/10/29 09:51:46;;;;;;;;;29.75;29.25;;;;;;;;4920842;28;112757;-74
2021/10/29 09:54:16;;;;;;;;;28.00;24.25;;;;;;;;4920860;28;113338;-70
2021/10/29 09:56:53;;;;;;;;;29.50;27.50;;;;;;;;4909187;28;112524;-70
2021/10/29 09:59:18;;;;;;;;;30.00;26.50;;;;;;;;4914609;28;112213;-72
2021/10/29 10:01:44;;;;;;;;;27.75;26.25;;;;;;;;4908757;28;113652;-70
2021/10/29 10:04:09;;;;;;;;;27.75;26.75;;;;;;;;4892363;28;112156;-68
2021/10/29 10:06:39;;;;;;;;;29.75;26.50;;;;;;;;4909966;28;111793;-74
2021/10/29 10:09:08;;;;;;;;;29.25;24.25;;;;;;;;4909472;28;113804;-76
2021/10/29 10:11:34;;;;;;;;;25.00;25.00;;;;;;;;4912060;28;112136;-78
2021/10/29 10:14:02;;;;;;;;;28.00;25.50;;;;;;;;4908264;28;112217;-81
2021/10/29 10:16:28;;;;;;;;;33.00;28.00;;;;;;;;4906967;28;113738;-80
2021/10/29 10:18:55;;;;;;;;;26.50;24.75;;;;;;;;4909493;28;112330;-77
2021/10/29 10:21:22;;;;;;;;;29.00;25.50;;;;;;;;4921404;28;112636;-76
2021/10/29 10:23:51;;;;;;;;;26.75;25.75;;;;;;;;4920727;28;112190;-76
2021/10/29 10:26:41;;;;;;;;;26.50;23.50;;;;;;;;4919579;28;112455;-76
2021/10/29 10:45:20;;;;;;;;;25.00;21.75;;;;;;;;4914744;28;112567;-74
2021/10/29 10:47:50;;;;;;;;;22.25;21.75;;;;;;;;4915920;28;113166;-74
2021/10/29 10:50:23;;;;;;;;;21.75;21.50;;;;;;;;4919628;28;113946;-73
2021/10/29 10:53:04;;;;;;;;;24.00;22.00;;;;;;;;4918943;28;112113;-71
2021/10/29 10:55:35;;;;;;;;;28.25;24.00;;;;;;;;4923388;28;112484;-72
2021/10/29 10:58:17;;;;;;;;;24.75;21.50;;;;;;;;4922096;28;113670;-72
2021/10/29 11:00:44;;;;;;;;;24.25;23.00;;;;;;;;4923113;28;111987;-73
2021/10/29 11:03:27;;;;;;;;;29.75;24.25;;;;;;;;4923296;28;112493;-73
2021/10/29 11:10:55;;;;;;;;;25.25;22.25;;;;;;;;4912004;28;113228;-72
2021/10/29 11:13:21;;;;;;;;;19.75;17.75;;;;;;;;4894938;28;113762;-71
2021/10/29 11:15:59;;;;;;;;;27.25;20.50;;;;;;;;4913847;28;112111;-72
2021/10/29 11:18:38;;;;;;;;;22.25;21.00;;;;;;;;4909187;28;112587;-71
2021/10/29 11:21:06;;;;;;;;;21.00;21.00;;;;;;;;4911958;28;112707;-70
2021/10/29 11:23:33;;;;;;;;;22.50;21.00;;;;;;;;4920687;28;113398;-70
2021/10/29 11:26:02;;;;;;;;;19.50;17.00;;;;;;;;4920806;28;112378;-71
2021/10/29 11:28:35;;;;;;;;;19.00;16.25;;;;;;;;4926592;28;112255;-72
2021/10/29 11:31:03;;;;;;;;;20.50;18.75;;;;;;;;4922288;28;112829;-74
2021/10/29 11:33:30;;;;;;;;;20.25;18.25;;;;;;;;4922782;28;112365;-74
2021/10/29 11:36:00;;;;;;;;;19.50;19.00;;;;;;;;4922711;28;113536;-73
2021/10/29 11:38:26;;;;;;;;;21.50;14.75;;;;;;;;4922827;28;112590;-79
2021/10/29 11:40:52;;;;;;;;;16.50;16.25;;;;;;;;4937792;28;111914;-73
2021/10/29 11:43:21;;;;;;;;;25.00;18.00;;;;;;;;4923491;28;112521;-75
2021/10/29 11:45:47;;;;;;;;;19.25;18.00;;;;;;;;4921860;28;112751;-76
2021/10/29 11:48:12;;;;;;;;;20.00;15.75;;;;;;;;4919815;28;111802;-74
2021/10/29 11:50:38;;;;;;;;;17.50;14.75;;;;;;;;4915419;28;112130;-72
2021/10/29 11:53:04;;;;;;;;;14.75;14.75;;;;;;;;4901167;28;112082;-73
2021/10/29 11:55:54;;;;;;;;;18.00;14.00;;;;;;;;4922371;28;112260;-74
2021/10/29 12:08:40;;;;;;;;;18.25;14.00;;;;;;;;4923036;28;112204;-73
2021/10/29 12:11:07;;;;;;;;;17.75;15.25;;;;;;;;4922181;28;112540;-74
2021/10/29 12:13:42;;;;;;;;;16.50;15.50;;;;;;;;4920863;28;114205;-72
2021/10/29 12:16:19;;;;;;;;;16.00;16.00;;;;;;;;4920768;28;112526;-74
2021/10/29 12:18:57;;;;;;;;;18.00;16.25;;;;;;;;4915991;28;112568;-73
2021/10/29 12:21:25;;;;;;;;;17.50;14.25;;;;;;;;4919454;28;111887;-73
2021/10/29 12:23:51;;;;;;;;;17.25;17.00;;;;;;;;4921777;28;112917;-73
2021/10/29 12:26:23;;;;;;;;;15.25;14.50;;;;;;;;4919818;28;112500;-73
2021/10/29 12:28:52;;;;;;;;;19.25;16.75;;;;;;;;4920268;28;112024;-73
2021/10/29 12:31:35;;;;;;;;;14.00;13.00;;;;;;;;4918956;28;112552;-74
2021/10/29 12:34:27;;;;;;;;;18.25;12.25;;;;;;;;4919296;28;114107;-74
2021/10/29 12:51:56;;;;;;;;;13.50;13.00;;;;;;;;4920100;28;112286;-72
2021/10/29 12:53:32;;;;;;;;;13.00;13.00;;;;;;;;4919458;28;112999;-76
2021/10/29 13:03:59;;;;;;;;;14.50;13.00;;;;;;;;4916071;28;113032;-74
2021/10/29 13:06:28;;;;;;;;;15.25;12.00;;;;;;;;4918477;28;113152;-73
2021/10/29 13:08:54;;;;;;;;;17.25;13.75;;;;;;;;4907452;28;115799;-74
2021/10/29 13:11:21;;;;;;;;;14.25;14.25;;;;;;;;4926630;28;111997;-75
2021/10/29 13:14:22;;;;;;;;;15.25;15.25;;;;;;;;4921984;28;113664;-80
2021/10/29 13:16:38;;;;;;;;;16.50;14.00;;;;;;;;4914482;28;113367;-74
2021/10/29 13:24:16;;;;;;;;;14.50;10.25;;;;;;;;4909957;28;112254;-79
2021/10/29 13:53:26;;;;;;;;;11.00;10.00;;;;;;;;4921584;28;113451;-78
2021/10/29 14:01:39;;;;;;;;;16.00;13.00;;;;;;;;4860867;28;112001;-76
2021/10/29 14:34:15;;;;;;;;;12.00;9.00;;;;;;;;4913501;28;112351;-74
2021/10/29 14:36:48;;;;;;;;;8.00;8.00;;;;;;;;4910681;28;112422;-77
2021/10/29 14:39:24;;;;;;;;;9.00;9.00;;;;;;;;4914534;28;113255;-77
2021/10/29 14:52:53;;;;;;;;;12.50;10.75;;;;;;;;4893695;28;112026;-73
2021/10/29 15:25:08;;;;;;;;;12.25;11.00;;;;;;;;4903376;28;112473;-74
2021/10/29 15:27:49;;;;;;;;;16.25;15.25;;;;;;;;4903778;28;111940;-74
2021/10/29 15:41:11;;;;;;;;;19.25;19.00;;;;;;;;4902971;28;112452;-74
2021/10/29 15:44:07;;;;;;;;;21.00;18.75;;;;;;;;4908061;28;111859;-74
2021/10/29 15:51:23;;;;;;;;;21.00;19.00;;;;;;;;4903863;28;112266;-74
2021/10/29 15:53:49;;;;;;;;;20.00;16.50;;;;;;;;4902594;28;112685;-74
2021/10/29 16:01:40;;;;;;;;;21.25;18.50;;;;;;;;4884525;28;112464;-71
2021/10/29 16:17:02;;;;;;;;;25.75;20.75;;;;;;;;4912338;28;112339;-73
2021/10/29 16:17:48;;;;;;;;;24.50;20.75;;;;;;;;4904054;28;111875;-70
2021/10/29 16:20:13;;;;;;;;;20.50;18.75;;;;;;;;4903264;28;113068;-69
2021/10/29 16:22:39;;;;;;;;;25.25;22.25;;;;;;;;4902638;28;112536;-70
2021/10/29 16:25:09;;;;;;;;;25.75;19.25;;;;;;;;4907767;28;111876;-68
2021/10/29 16:30:22;;;;;;;;;22.25;22.25;;;;;;;;4910780;28;112257;-68
2021/10/29 16:35:16;;;;;;;;;32.25;29.25;;;;;;;;4902733;28;112363;-72
2021/10/29 16:37:41;;;;;;;;;30.00;27.75;;;;;;;;4903142;28;111769;-72
2021/10/29 16:40:07;;;;;;;;;26.75;26.25;;;;;;;;4903580;28;112100;-72
2021/10/29 16:42:32;;;;;;;;;27.00;24.50;;;;;;;;4902528;28;112432;-72
2021/10/29 16:44:57;;;;;;;;;27.00;22.50;;;;;;;;4903697;28;111733;-74
2021/10/29 16:47:23;;;;;;;;;23.50;21.00;;;;;;;;4903537;28;112067;-70
2021/10/29 16:49:49;;;;;;;;;23.50;21.25;;;;;;;;4902288;28;112281;-71
2021/10/29 16:52:14;;;;;;;;;27.00;23.25;;;;;;;;4906978;28;112019;-71
2021/10/29 16:54:39;;;;;;;;;27.00;23.25;;;;;;;;4902214;28;113113;-71
2021/10/29 16:57:04;;;;;;;;;23.75;21.75;;;;;;;;4910167;28;111930;-73
2021/10/29 16:59:30;;;;;;;;;30.50;22.75;;;;;;;;4922334;28;111692;-73
2021/10/29 17:01:55;;;;;;;;;29.50;24.50;;;;;;;;4920400;28;112890;-72
2021/10/29 17:04:20;;;;;;;;;29.00;26.00;;;;;;;;4922032;28;112131;-73
2021/10/29 17:06:45;;;;;;;;;32.50;24.25;;;;;;;;4921417;28;113173;-73
2021/10/29 17:09:11;;;;;;;;;25.75;23.50;;;;;;;;4920601;28;113268;-72
2021/10/29 17:11:36;;;;;;;;;30.75;23.25;;;;;;;;4912467;28;112023;-74
2021/10/29 17:14:01;;;;;;;;;26.25;24.00;;;;;;;;4914538;28;112316;-73
2021/10/29 17:16:27;;;;;;;;;24.75;22.25;;;;;;;;4916500;28;111949;-77
2021/10/29 17:18:52;;;;;;;;;23.50;22.50;;;;;;;;4902109;28;113156;-76
2021/10/29 17:21:17;;;;;;;;;26.50;23.00;;;;;;;;4907867;28;112422;-76
2021/10/29 17:23:43;;;;;;;;;27.75;22.50;;;;;;;;4921201;28;112502;-74
2021/10/29 17:26:08;;;;;;;;;24.00;24.00;;;;;;;;4921523;28;112187;-73
2021/10/29 17:28:33;;;;;;;;;25.25;22.75;;;;;;;;4920218;28;112874;-74
2021/10/29 17:30:59;;;;;;;;;27.50;24.25;;;;;;;;4920206;28;112247;-75
2021/10/29 17:33:24;;;;;;;;;18.75;18.00;;;;;;;;4920587;28;112396;-75
2021/10/29 17:35:49;;;;;;;;;23.00;19.75;;;;;;;;4922983;28;112348;-74
2021/10/29 17:38:15;;;;;;;;;25.25;20.75;;;;;;;;4920914;28;112898;-77
2021/10/29 17:40:40;;;;;;;;;22.75;19.00;;;;;;;;4919941;28;112404;-75
2021/10/29 17:43:05;;;;;;;;;23.75;21.75;;;;;;;;4921157;28;113678;-71
2021/10/29 17:45:31;;;;;;;;;23.00;22.75;;;;;;;;4921604;28;111907;-74
2021/10/29 17:47:56;;;;;;;;;1.00;0.00;;;;;;;;4921437;28;112309;-73
2021/10/29 17:50:22;;;;;;;;;22.50;19.75;;;;;;;;4922587;28;112033;-75
2021/10/29 17:52:47;;;;;;;;;22.75;21.75;;;;;;;;4921901;28;111873;-72
2021/10/29 17:55:14;;;;;;;;;23.25;20.50;;;;;;;;4924581;28;112629;-70
2021/10/29 17:57:41;;;;;;;;;29.75;19.00;;;;;;;;4921512;28;111904;-69
2021/10/29 18:00:07;;;;;;;;;22.00;20.50;;;;;;;;4919919;28;112600;-73
2021/10/29 18:02:32;;;;;;;;;25.00;21.50;;;;;;;;4921728;28;111992;-71
2021/10/29 18:04:58;;;;;;;;;23.00;22.50;;;;;;;;4921503;28;112323;-72
2021/10/29 18:07:25;;;;;;;;;22.25;21.75;;;;;;;;4919478;28;112631;-72
2021/10/29 18:09:51;;;;;;;;;21.50;21.50;;;;;;;;4921156;28;112114;-73
2021/10/29 18:12:17;;;;;;;;;24.00;23.00;;;;;;;;4920326;28;113325;-71
2021/10/29 18:14:43;;;;;;;;;26.75;26.25;;;;;;;;4918856;28;112412;-78
2021/10/29 18:17:09;;;;;;;;;26.75;21.75;;;;;;;;4913447;28;112200;-79
2021/10/29 18:19:35;;;;;;;;;22.75;21.50;;;;;;;;4909791;28;115826;-77
2021/10/29 18:22:00;;;;;;;;;24.25;24.00;;;;;;;;4920573;28;111838;-81
2021/10/29 18:24:26;;;;;;;;;34.00;28.50;;;;;;;;4921148;28;112283;-80
2021/10/29 18:26:51;;;;;;;;;7.00;2.00;;;;;;;;4919148;28;112408;-77
2021/10/29 18:29:16;;;;;;;;;32.25;28.50;;;;;;;;4920454;28;112444;-81
2021/10/29 18:31:42;;;;;;;;;27.25;25.25;;;;;;;;4920130;28;112110;-79
2021/10/29 18:34:07;;;;;;;;;19.00;18.25;;;;;;;;4902429;28;114110;-81
2021/10/29 18:36:33;;;;;;;;;30.00;25.50;;;;;;;;4920654;28;112302;-82
2021/10/29 18:38:59;;;;;;;;;35.50;29.25;;;;;;;;4921643;28;112278;-82
2021/10/29 18:41:26;;;;;;;;;30.00;28.25;;;;;;;;4919123;28;112248;-82
2021/10/29 18:43:52;;;;;;;;;27.00;26.00;;;;;;;;4919846;28;112056;-81